Time;durP1;ratioP1;P1;durP2;ratioP2;P2;SDS_P1;SDS_P2;PMS_P1;PMS_P2;Temp;Humidity;BMP_temperature;BMP_pressure;BME280_temperature;BME280_humidity;BME280_pressure;Samples;Min_cycle;Max_cycle;Signal;HPM_P1;HPM_P2
2021/09/24 00:01:17;;;;;;;12.90;3.50;;;16.20;81.80;;;;;;5012756;28;20042;-85
2021/09/24 00:03:44;;;;;;;14.82;3.38;;;16.30;81.80;;;;;;5013267;28;20439;-84
2021/09/24 00:06:11;;;;;;;9.50;3.28;;;16.20;81.80;;;;;;5015781;28;20057;-85
2021/09/24 00:08:38;;;;;;;18.23;3.53;;;16.30;81.90;;;;;;5017409;28;20045;-85
2021/09/24 00:11:05;;;;;;;26.45;4.60;;;16.30;82.00;;;;;;5017468;28;20101;-85
2021/09/24 00:13:32;;;;;;;13.55;3.15;;;16.30;82.00;;;;;;5014577;28;20050;-84
2021/09/24 00:15:59;;;;;;;15.40;3.70;;;16.30;82.00;;;;;;5020273;28;20049;-84
2021/09/24 00:18:26;;;;;;;24.30;3.78;;;16.30;82.00;;;;;;5019979;28;20062;-85
2021/09/24 00:20:53;;;;;;;17.80;3.95;;;16.30;82.00;;;;;;5019896;28;20407;-85
2021/09/24 00:23:20;;;;;;;16.60;3.55;;;16.30;82.10;;;;;;5017878;28;20045;-85
2021/09/24 00:25:47;;;;;;;20.02;3.70;;;16.30;82.10;;;;;;5017599;28;20046;-85
2021/09/24 00:28:14;;;;;;;23.25;3.70;;;16.30;82.20;;;;;;5016346;28;20077;-85
2021/09/24 00:30:40;;;;;;;10.40;3.25;;;16.30;82.10;;;;;;5016816;28;20704;-85
2021/09/24 00:33:07;;;;;;;10.80;3.10;;;16.30;82.10;;;;;;5016764;28;20053;-85
2021/09/24 00:35:34;;;;;;;20.75;3.95;;;16.30;82.10;;;;;;5016788;28;20499;-85
2021/09/24 00:38:01;;;;;;;19.50;4.05;;;16.40;82.10;;;;;;5016388;28;20411;-85
2021/09/24 00:40:31;;;;;;;10.68;3.15;;;16.40;82.10;;;;;;5014658;28;20054;-85
2021/09/24 00:42:58;;;;;;;21.40;4.10;;;16.40;82.10;;;;;;5016345;28;20058;-85
2021/09/24 00:45:25;;;;;;;21.23;4.53;;;16.40;82.20;;;;;;5016584;28;20097;-85
2021/09/24 00:47:52;;;;;;;14.45;3.17;;;16.40;82.10;;;;;;5016532;28;20568;-85
2021/09/24 00:50:19;;;;;;;13.63;3.50;;;16.40;82.20;;;;;;5016616;28;20084;-85
2021/09/24 00:52:52;;;;;;;20.15;4.03;;;16.40;82.10;;;;;;5014391;28;20058;-85
2021/09/24 00:55:20;;;;;;;15.95;4.05;;;16.40;82.10;;;;;;5018502;28;20454;-84
2021/09/24 00:57:47;;;;;;;18.65;3.92;;;16.40;82.10;;;;;;5018946;28;20054;-86
2021/09/24 01:00:15;;;;;;;9.05;2.88;;;16.40;82.10;;;;;;5019159;28;20096;-86
2021/09/24 01:02:42;;;;;;;19.83;3.92;;;16.40;82.10;;;;;;5019262;28;20049;-86
2021/09/24 01:05:10;;;;;;;11.32;3.38;;;16.50;82.10;;;;;;5015688;28;20054;-85
2021/09/24 01:07:40;;;;;;;16.30;3.97;;;16.50;82.10;;;;;;5017369;28;20050;-85
2021/09/24 01:10:08;;;;;;;12.02;4.22;;;16.50;82.10;;;;;;5016016;28;20045;-85
2021/09/24 01:12:35;;;;;;;12.18;3.95;;;16.50;82.00;;;;;;5015766;28;20053;-85
2021/09/24 01:15:06;;;;;;;13.90;4.38;;;16.50;82.10;;;;;;5016127;28;20450;-86
2021/09/24 01:17:33;;;;;;;9.02;4.28;;;16.50;82.10;;;;;;5016018;28;20100;-86
2021/09/24 01:20:00;;;;;;;19.33;4.85;;;16.50;82.10;;;;;;5015570;28;20518;-86
2021/09/24 01:22:27;;;;;;;13.20;4.18;;;16.50;82.10;;;;;;5014075;28;20127;-85
2021/09/24 01:24:54;;;;;;;18.25;4.40;;;16.50;82.10;;;;;;5015832;28;20112;-86
2021/09/24 01:27:20;;;;;;;12.55;4.00;;;16.50;82.10;;;;;;4998219;28;20054;-86
2021/09/24 01:29:52;;;;;;;18.83;4.78;;;16.50;82.10;;;;;;4998568;28;20057;-86
2021/09/24 01:32:19;;;;;;;11.48;4.32;;;16.50;82.00;;;;;;5015892;28;20095;-86
2021/09/24 01:34:46;;;;;;;12.40;4.40;;;16.50;82.10;;;;;;5013793;28;20502;-86
2021/09/24 01:37:13;;;;;;;15.57;4.32;;;16.50;82.10;;;;;;4997994;28;20101;-86
2021/09/24 01:39:40;;;;;;;12.05;4.28;;;16.60;82.20;;;;;;5015623;28;20115;-86
2021/09/24 01:42:07;;;;;;;13.70;5.20;;;16.60;82.20;;;;;;5015189;28;20100;-87
2021/09/24 01:44:35;;;;;;;13.40;5.50;;;16.60;82.30;;;;;;5015581;28;20049;-86
2021/09/24 01:47:02;;;;;;;12.82;4.15;;;16.60;82.30;;;;;;5014363;28;20056;-86
2021/09/24 01:49:29;;;;;;;22.05;5.60;;;16.60;82.30;;;;;;5017484;28;20620;-87
2021/09/24 01:51:56;;;;;;;11.15;4.28;;;16.60;82.30;;;;;;5018318;28;20567;-86
2021/09/24 01:54:23;;;;;;;14.43;5.35;;;16.60;82.40;;;;;;5018154;28;20596;-86
2021/09/24 01:56:50;;;;;;;14.00;4.63;;;16.50;82.40;;;;;;5017933;28;20053;-86
2021/09/24 01:59:16;;;;;;;18.77;5.03;;;16.50;82.50;;;;;;5015707;28;20101;-86
2021/09/24 02:01:43;;;;;;;17.48;4.75;;;16.60;82.50;;;;;;5015849;28;20054;-86
2021/09/24 02:04:11;;;;;;;18.73;5.60;;;16.60;82.60;;;;;;5017497;28;20054;-86
2021/09/24 02:06:38;;;;;;;19.05;5.80;;;16.50;82.60;;;;;;5018060;28;20046;-86
2021/09/24 02:09:05;;;;;;;14.40;5.15;;;16.60;82.60;;;;;;5018146;28;20062;-87
2021/09/24 02:11:32;;;;;;;12.90;4.25;;;16.50;82.60;;;;;;5017287;28;20053;-86
2021/09/24 02:13:59;;;;;;;17.27;5.78;;;16.50;82.70;;;;;;5013854;28;20053;-86
2021/09/24 02:16:26;;;;;;;19.67;5.30;;;16.60;82.70;;;;;;5017140;28;20046;-86
2021/09/24 02:18:54;;;;;;;21.90;6.82;;;16.50;82.70;;;;;;5017699;28;20057;-87
2021/09/24 02:21:21;;;;;;;14.90;5.22;;;16.60;82.70;;;;;;5017744;28;20565;-87
2021/09/24 02:23:48;;;;;;;23.02;7.05;;;16.60;82.80;;;;;;5017517;28;20115;-86
2021/09/24 02:26:15;;;;;;;27.02;7.45;;;16.50;82.90;;;;;;4997509;28;20042;-86
2021/09/24 02:28:58;;;;;;;19.15;5.93;;;16.60;82.90;;;;;;5013223;28;20062;-86
2021/09/24 02:31:25;;;;;;;22.95;7.22;;;16.50;82.90;;;;;;5016785;28;20050;-86
2021/09/24 02:33:52;;;;;;;17.73;6.72;;;16.50;82.90;;;;;;5017567;28;20104;-87
2021/09/24 02:36:18;;;;;;;20.60;7.38;;;16.50;82.90;;;;;;5017579;28;20104;-86
2021/09/24 02:38:45;;;;;;;19.98;6.15;;;16.50;83.00;;;;;;5017092;28;20430;-87
2021/09/24 02:41:12;;;;;;;20.45;7.45;;;16.60;83.00;;;;;;5014343;28;20050;-86
2021/09/24 02:43:40;;;;;;;20.45;7.65;;;16.60;83.00;;;;;;5015267;28;20046;-87
2021/09/24 02:46:07;;;;;;;17.77;7.28;;;16.50;83.00;;;;;;5014188;28;20049;-87
2021/09/24 02:48:33;;;;;;;18.05;6.93;;;16.50;83.10;;;;;;5014339;28;20057;-87
2021/09/24 02:51:00;;;;;;;16.75;6.07;;;16.60;83.10;;;;;;5014208;28;20466;-86
2021/09/24 02:53:27;;;;;;;19.73;7.45;;;16.50;83.20;;;;;;5014064;28;20045;-86
2021/09/24 02:55:54;;;;;;;19.88;7.40;;;16.50;83.10;;;;;;5012904;28;20107;-86
2021/09/24 02:58:22;;;;;;;17.17;7.55;;;16.50;83.20;;;;;;5012940;28;20084;-87
2021/09/24 03:00:49;;;;;;;18.55;8.07;;;16.50;83.20;;;;;;5014123;28;20061;-86
2021/09/24 03:03:16;;;;;;;24.73;7.93;;;16.50;83.30;;;;;;5014106;28;20470;-86
2021/09/24 03:05:43;;;;;;;32.42;9.40;;;16.50;83.30;;;;;;5014023;28;20077;-86
2021/09/24 03:08:10;;;;;;;26.35;8.88;;;16.50;83.30;;;;;;5013692;28;20530;-86
2021/09/24 03:10:37;;;;;;;28.83;8.70;;;16.50;83.30;;;;;;5011624;28;20061;-86
2021/09/24 03:13:04;;;;;;;21.10;8.02;;;16.50;83.30;;;;;;5013727;28;20108;-86
2021/09/24 03:15:31;;;;;;;20.58;7.78;;;16.50;83.30;;;;;;5013828;28;20413;-87
2021/09/24 03:17:57;;;;;;;23.25;7.60;;;16.60;83.30;;;;;;5013820;28;20104;-86
2021/09/24 03:20:24;;;;;;;23.83;8.20;;;16.50;83.40;;;;;;5013864;28;20049;-86
2021/09/24 03:22:53;;;;;;;14.50;6.40;;;16.50;83.40;;;;;;5011837;28;20046;-86
2021/09/24 03:25:20;;;;;;;19.95;8.02;;;16.60;83.40;;;;;;5012856;28;20056;-86
2021/09/24 03:27:48;;;;;;;15.43;6.82;;;16.50;83.40;;;;;;5013632;28;20061;-87
2021/09/24 03:30:16;;;;;;;18.90;7.93;;;16.50;83.40;;;;;;5013640;28;20100;-86
2021/09/24 03:32:44;;;;;;;14.95;7.10;;;16.50;83.40;;;;;;5013840;28;20046;-86
2021/09/24 03:35:11;;;;;;;20.70;8.25;;;16.50;83.40;;;;;;5013617;28;20644;-86
2021/09/24 03:37:38;;;;;;;19.70;7.45;;;16.60;83.40;;;;;;5011007;28;20050;-86
2021/09/24 03:40:05;;;;;;;23.15;7.28;;;16.50;83.40;;;;;;5012433;28;20050;-86
2021/09/24 03:42:32;;;;;;;21.45;7.85;;;16.60;83.40;;;;;;5013467;28;20049;-87
2021/09/24 03:44:59;;;;;;;18.20;6.60;;;16.60;83.40;;;;;;5013389;28;20116;-86
2021/09/24 03:47:26;;;;;;;16.10;6.35;;;16.60;83.40;;;;;;5013517;28;20045;-86
2021/09/24 03:49:53;;;;;;;20.00;6.30;;;16.60;83.40;;;;;;5012151;28;20049;-87
2021/09/24 03:52:20;;;;;;;13.30;6.22;;;16.60;83.50;;;;;;5011981;28;20061;-86
2021/09/24 03:54:47;;;;;;;18.80;6.45;;;16.60;83.40;;;;;;5013073;28;20053;-87
2021/09/24 03:57:14;;;;;;;22.48;7.28;;;16.60;83.40;;;;;;5013248;28;20058;-85
2021/09/24 03:59:41;;;;;;;14.27;5.80;;;16.60;83.50;;;;;;5013277;28;20422;-86
2021/09/24 04:02:08;;;;;;;14.23;6.13;;;16.60;83.50;;;;;;5013388;28;20100;-86
2021/09/24 04:04:35;;;;;;;14.55;6.47;;;16.60;83.50;;;;;;5010925;28;20134;-85
2021/09/24 04:07:03;;;;;;;14.13;5.93;;;16.60;83.50;;;;;;5015843;28;20046;-87
2021/09/24 04:09:29;;;;;;;18.60;6.60;;;16.60;83.50;;;;;;5016204;28;20054;-86
2021/09/24 04:11:56;;;;;;;16.48;6.10;;;16.60;83.50;;;;;;5016141;28;20533;-86
2021/09/24 04:14:23;;;;;;;17.00;6.70;;;16.60;83.50;;;;;;5014370;28;20046;-86
2021/09/24 04:16:50;;;;;;;19.33;6.50;;;16.60;83.50;;;;;;5013312;28;20042;-86
2021/09/24 04:19:17;;;;;;;17.05;6.30;;;16.60;83.60;;;;;;5015226;28;20061;-86
2021/09/24 04:21:44;;;;;;;23.83;7.80;;;16.60;83.60;;;;;;5015894;28;20041;-85
2021/09/24 04:24:11;;;;;;;23.58;8.60;;;16.60;83.70;;;;;;5016016;28;20061;-86
2021/09/24 04:26:37;;;;;;;17.63;8.85;;;16.60;83.80;;;;;;5016062;28;20042;-85
2021/09/24 04:29:05;;;;;;;19.73;8.75;;;16.60;83.80;;;;;;5011701;28;20058;-86
2021/09/24 04:31:33;;;;;;;18.00;7.93;;;16.60;83.90;;;;;;5014681;28;20053;-86
2021/09/24 04:34:00;;;;;;;15.85;8.43;;;16.50;83.90;;;;;;5013172;28;20049;-86
2021/09/24 04:36:26;;;;;;;20.33;9.00;;;16.60;83.90;;;;;;5012579;28;20046;-85
2021/09/24 04:38:53;;;;;;;19.25;8.30;;;16.60;83.90;;;;;;5012991;28;20049;-86
2021/09/24 04:41:20;;;;;;;20.30;9.27;;;16.60;83.90;;;;;;5012958;28;20045;-86
2021/09/24 04:43:47;;;;;;;14.13;7.43;;;16.60;83.90;;;;;;5010949;28;20116;-86
2021/09/24 04:46:14;;;;;;;12.40;7.43;;;16.60;83.90;;;;;;5015049;28;20050;-86
2021/09/24 04:48:41;;;;;;;19.60;8.63;;;16.60;83.90;;;;;;5015506;28;20501;-86
2021/09/24 04:51:08;;;;;;;16.27;8.40;;;16.60;83.90;;;;;;5016492;28;20073;-86
2021/09/24 04:53:34;;;;;;;22.70;7.93;;;16.60;83.90;;;;;;5019184;28;20049;-86
2021/09/24 04:56:01;;;;;;;17.75;8.57;;;16.60;83.90;;;;;;5016386;28;20054;-87
2021/09/24 04:58:28;;;;;;;17.05;8.88;;;16.60;83.90;;;;;;5014324;28;20703;-86
2021/09/24 05:00:55;;;;;;;18.75;8.38;;;16.60;83.90;;;;;;5016350;28;20116;-86
2021/09/24 05:03:22;;;;;;;20.30;8.32;;;16.50;83.90;;;;;;5015837;28;20454;-86
2021/09/24 05:05:49;;;;;;;23.60;8.30;;;16.60;83.90;;;;;;5016178;28;20049;-86
2021/09/24 05:08:16;;;;;;;20.42;7.50;;;16.60;83.90;;;;;;5016371;28;20041;-86
2021/09/24 05:10:42;;;;;;;22.92;7.53;;;16.60;84.00;;;;;;5014177;28;20081;-85
2021/09/24 05:13:09;;;;;;;21.63;7.82;;;16.60;83.90;;;;;;5015926;28;20556;-86
2021/09/24 05:15:36;;;;;;;16.60;7.10;;;16.60;84.00;;;;;;5016094;28;20050;-86
2021/09/24 05:18:03;;;;;;;12.80;6.25;;;16.60;84.00;;;;;;5015605;28;20042;-86
2021/09/24 05:20:30;;;;;;;11.27;6.60;;;16.60;84.00;;;;;;5016204;28;20049;-86
2021/09/24 05:22:57;;;;;;;14.27;6.07;;;16.60;84.00;;;;;;5015114;28;20050;-86
2021/09/24 05:25:24;;;;;;;11.55;5.95;;;16.60;84.00;;;;;;5014348;28;20530;-85
2021/09/24 05:27:52;;;;;;;13.68;5.80;;;16.60;84.00;;;;;;5015716;28;20489;-86
2021/09/24 05:30:20;;;;;;;12.77;5.60;;;16.60;84.00;;;;;;5015940;28;20053;-85
2021/09/24 05:32:47;;;;;;;11.70;5.20;;;16.60;84.00;;;;;;5015488;28;20041;-86
2021/09/24 05:35:15;;;;;;;11.18;5.28;;;16.60;84.00;;;;;;5015813;28;20045;-86
2021/09/24 05:37:46;;;;;;;16.98;6.38;;;16.60;84.00;;;;;;5013703;28;20100;-86
2021/09/24 05:40:13;;;;;;;11.48;5.20;;;16.60;84.00;;;;;;5015499;28;20096;-86
2021/09/24 05:42:40;;;;;;;10.35;5.25;;;16.60;84.00;;;;;;5015376;28;20076;-86
2021/09/24 05:45:11;;;;;;;9.07;4.95;;;16.60;84.00;;;;;;5015502;28;20466;-86
2021/09/24 05:47:39;;;;;;;13.98;5.22;;;16.60;84.00;;;;;;5015166;28;20548;-86
2021/09/24 05:50:13;;;;;;;15.05;5.40;;;16.60;84.00;;;;;;5015537;28;20522;-85
2021/09/24 05:52:45;;;;;;;8.75;4.82;;;16.60;84.00;;;;;;5013494;28;20503;-85
2021/09/24 05:55:14;;;;;;;12.88;4.75;;;16.60;84.00;;;;;;5015127;28;20050;-85
2021/09/24 05:57:41;;;;;;;11.82;5.05;;;16.60;84.10;;;;;;5015222;28;20046;-86
2021/09/24 06:00:09;;;;;;;9.90;4.30;;;16.60;84.00;;;;;;5015224;28;20054;-86
2021/09/24 06:02:36;;;;;;;10.20;4.50;;;16.60;84.00;;;;;;5014079;28;20042;-86
2021/09/24 06:05:04;;;;;;;7.28;4.28;;;16.60;84.00;;;;;;5015268;28;20470;-86
2021/09/24 06:07:31;;;;;;;9.88;4.45;;;16.50;84.00;;;;;;5028677;28;20045;-86
2021/09/24 06:09:58;;;;;;;11.32;4.45;;;16.50;84.10;;;;;;5017935;28;20113;-85
2021/09/24 06:12:25;;;;;;;8.80;4.55;;;16.60;84.10;;;;;;5018029;28;20104;-86
2021/09/24 06:14:52;;;;;;;7.38;3.97;;;16.50;84.20;;;;;;5017914;28;20049;-85
2021/09/24 06:17:19;;;;;;;9.50;4.20;;;16.50;84.20;;;;;;5013428;28;20041;-86
2021/09/24 06:19:46;;;;;;;6.35;3.58;;;16.60;84.20;;;;;;5029351;28;20056;-88
2021/09/24 06:22:13;;;;;;;6.57;3.60;;;16.60;84.20;;;;;;5031887;28;20041;-87
2021/09/24 06:24:39;;;;;;;8.52;3.72;;;16.60;84.30;;;;;;5027804;28;20105;-89
2021/09/24 06:27:14;;;;;;;7.10;3.67;;;16.60;84.30;;;;;;5027646;28;20103;-91
2021/09/24 06:29:50;;;;;;;6.47;3.58;;;16.60;84.30;;;;;;5027781;28;20042;-89
2021/09/24 06:32:18;;;;;;;10.65;3.80;;;16.60;84.30;;;;;;5027494;28;20434;-89
2021/09/24 06:34:46;;;;;;;8.07;3.72;;;16.60;84.40;;;;;;5030169;28;20081;-89
2021/09/24 06:37:14;;;;;;;7.97;4.20;;;16.60;84.40;;;;;;5029759;28;20041;-89
2021/09/24 06:39:41;;;;;;;6.43;4.60;;;16.60;84.40;;;;;;5027630;28;20057;-89
2021/09/24 06:42:08;;;;;;;10.07;5.90;;;16.60;84.40;;;;;;5026016;28;20050;-90
2021/09/24 06:44:36;;;;;;;8.05;5.35;;;16.60;84.40;;;;;;5023617;28;20244;-89
2021/09/24 06:47:03;;;;;;;6.32;3.67;;;16.60;84.50;;;;;;5026120;28;20082;-90
2021/09/24 06:49:30;;;;;;;8.15;5.70;;;16.60;84.50;;;;;;5015997;28;20096;-90
2021/09/24 06:51:57;;;;;;;12.95;6.22;;;16.70;84.50;;;;;;5028471;28;20116;-89
2021/09/24 06:54:26;;;;;;;7.20;5.18;;;16.70;84.60;;;;;;5027921;28;20099;-90
2021/09/24 06:56:53;;;;;;;14.05;6.10;;;16.70;84.60;;;;;;5028552;28;20045;-90
2021/09/24 06:59:20;;;;;;;8.10;5.72;;;16.70;84.60;;;;;;5029941;28;20464;-88
2021/09/24 07:01:47;;;;;;;11.00;6.18;;;16.70;84.60;;;;;;5030589;28;20095;-91
2021/09/24 07:04:15;;;;;;;9.23;6.25;;;16.70;84.70;;;;;;5032578;28;20119;-91
2021/09/24 07:06:42;;;;;;;9.95;5.82;;;16.70;84.70;;;;;;5028188;28;20045;-91
2021/09/24 07:09:10;;;;;;;13.07;6.43;;;16.70;84.70;;;;;;5028159;28;20083;-91
2021/09/24 07:11:37;;;;;;;11.32;6.50;;;16.80;84.80;;;;;;5028064;28;20052;-91
2021/09/24 07:14:10;;;;;;;10.45;6.45;;;16.80;84.90;;;;;;5027614;28;20045;-91
2021/09/24 07:16:38;;;;;;;8.52;5.50;;;16.80;84.90;;;;;;5031043;28;20057;-91
2021/09/24 07:19:06;;;;;;;8.82;6.45;;;16.80;84.90;;;;;;5029897;28;20055;-91
2021/09/24 07:21:33;;;;;;;12.05;6.13;;;16.80;85.00;;;;;;5028037;28;20493;-90
2021/09/24 07:24:01;;;;;;;10.57;5.70;;;16.80;85.00;;;;;;5029279;28;20041;-92
2021/09/24 07:26:29;;;;;;;11.02;5.53;;;16.80;85.00;;;;;;5028111;28;20513;-91
2021/09/24 07:28:57;;;;;;;11.60;5.32;;;16.90;85.10;;;;;;5028876;28;20400;-92
2021/09/24 07:31:24;;;;;;;11.60;5.47;;;16.90;85.10;;;;;;5031124;28;20053;-91
2021/09/24 07:33:52;;;;;;;10.43;5.20;;;16.90;85.20;;;;;;5027720;28;20103;-90
2021/09/24 07:36:20;;;;;;;12.07;5.30;;;16.90;85.20;;;;;;5027547;28;20510;-88
2021/09/24 07:38:48;;;;;;;13.63;5.03;;;16.90;85.20;;;;;;5029385;28;20073;-88
2021/09/24 07:41:17;;;;;;;10.48;4.97;;;16.90;85.20;;;;;;5022468;28;20050;-87
2021/09/24 07:43:46;;;;;;;8.73;4.25;;;16.90;85.20;;;;;;5029892;28;20091;-89
2021/09/24 07:46:13;;;;;;;7.70;4.55;;;17.00;85.20;;;;;;5029259;28;20420;-88
2021/09/24 07:48:42;;;;;;;8.60;4.38;;;17.00;85.10;;;;;;5027669;28;20049;-88
2021/09/24 07:51:10;;;;;;;9.13;4.00;;;17.00;85.10;;;;;;5027486;28;20057;-88
2021/09/24 07:53:37;;;;;;;12.45;4.43;;;16.90;85.10;;;;;;5009643;28;20498;-88
2021/09/24 07:56:06;;;;;;;13.00;4.47;;;16.90;85.10;;;;;;5027685;28;20510;-88
2021/09/24 07:58:33;;;;;;;11.18;5.30;;;17.00;85.10;;;;;;5028014;28;20045;-89
2021/09/24 08:01:00;;;;;;;9.40;4.53;;;17.00;85.10;;;;;;5026642;28;20053;-88
2021/09/24 08:03:28;;;;;;;12.45;4.85;;;17.00;85.20;;;;;;5027244;28;20041;-86
2021/09/24 08:05:54;;;;;;;8.65;4.22;;;17.10;85.20;;;;;;5027346;28;20053;-88
2021/09/24 08:08:21;;;;;;;8.90;4.88;;;17.10;85.20;;;;;;5027486;28;20100;-89
2021/09/24 08:10:48;;;;;;;7.05;4.20;;;17.10;85.20;;;;;;5029691;28;20057;-87
2021/09/24 08:13:15;;;;;;;10.43;4.55;;;17.10;85.10;;;;;;5029497;28;20072;-88
2021/09/24 08:15:45;;;;;;;8.40;4.38;;;17.20;85.10;;;;;;5026899;28;20080;-86
2021/09/24 08:18:14;;;;;;;12.55;4.60;;;17.20;85.00;;;;;;5029189;28;20615;-88
2021/09/24 08:20:41;;;;;;;12.82;4.07;;;17.20;85.00;;;;;;5027422;28;20049;-87
2021/09/24 08:23:08;;;;;;;8.60;3.50;;;17.30;84.90;;;;;;5027448;28;20137;-88
2021/09/24 08:25:35;;;;;;;8.40;3.60;;;17.30;84.90;;;;;;5030804;28;20112;-88
2021/09/24 08:28:03;;;;;;;8.43;3.72;;;17.30;84.80;;;;;;5031050;28;20588;-85
2021/09/24 08:30:30;;;;;;;7.22;3.90;;;17.30;84.50;;;;;;5013974;28;20053;-91
2021/09/24 08:33:00;;;;;;;7.30;3.65;;;17.30;84.30;;;;;;5030906;28;20095;-88
2021/09/24 08:35:28;;;;;;;8.73;4.25;;;17.30;84.30;;;;;;5030864;28;20513;-88
2021/09/24 08:37:55;;;;;;;10.48;4.38;;;17.30;84.30;;;;;;5024949;28;20068;-88
2021/09/24 08:40:26;;;;;;;8.13;4.40;;;17.30;84.30;;;;;;5034091;28;20060;-89
2021/09/24 08:42:53;;;;;;;9.20;4.60;;;17.30;84.30;;;;;;5030707;28;20042;-88
2021/09/24 08:45:23;;;;;;;9.90;4.05;;;17.30;84.30;;;;;;5030754;28;20053;-88
2021/09/24 08:48:00;;;;;;;8.23;4.10;;;17.40;84.30;;;;;;5031129;28;20049;-94
2021/09/24 08:50:29;;;;;;;6.80;3.92;;;17.40;84.30;;;;;;5031297;28;20045;-88
2021/09/24 08:52:57;;;;;;;7.95;4.32;;;17.40;84.40;;;;;;5031880;28;20050;-88
2021/09/24 08:55:24;;;;;;;8.65;3.88;;;17.40;84.50;;;;;;5033798;28;20050;-88
2021/09/24 08:57:52;;;;;;;8.00;4.95;;;17.40;84.50;;;;;;5032235;28;20049;-87
2021/09/24 09:00:20;;;;;;;7.80;4.10;;;17.50;84.40;;;;;;5030356;28;20513;-88
2021/09/24 09:02:51;;;;;;;11.25;3.97;;;17.50;84.50;;;;;;5030606;28;20045;-87
2021/09/24 09:05:19;;;;;;;6.22;3.22;;;17.60;84.60;;;;;;5030717;28;20160;-86
2021/09/24 09:07:47;;;;;;;9.88;3.00;;;17.70;84.70;;;;;;5032814;28;20422;-87
2021/09/24 09:10:14;;;;;;;5.97;2.70;;;17.80;84.50;;;;;;5032374;28;20053;-90
2021/09/24 09:12:41;;;;;;;4.75;2.35;;;17.90;84.50;;;;;;5030483;28;20534;-87
2021/09/24 09:15:14;;;;;;;9.07;2.50;;;17.90;84.30;;;;;;5030133;28;20091;-88
2021/09/24 09:17:50;;;;;;;4.20;1.75;;;18.00;84.10;;;;;;5031527;28;20120;-87
2021/09/24 09:20:23;;;;;;;6.93;1.95;;;18.10;83.90;;;;;;5030542;28;20096;-87
2021/09/24 09:23:03;;;;;;;9.77;1.77;;;18.20;83.80;;;;;;5032218;28;20100;-86
2021/09/24 09:25:40;;;;;;;4.50;1.73;;;18.30;83.60;;;;;;5029493;28;20100;-87
2021/09/24 09:28:13;;;;;;;5.45;2.10;;;18.40;83.30;;;;;;5033911;28;20057;-89
2021/09/24 09:30:42;;;;;;;5.57;1.70;;;18.50;82.80;;;;;;5029801;28;20505;-87
2021/09/24 09:33:16;;;;;;;3.05;1.52;;;18.50;82.60;;;;;;5030038;28;20183;-88
2021/09/24 09:35:50;;;;;;;5.85;1.40;;;18.60;82.20;;;;;;5031881;28;20443;-88
2021/09/24 09:38:37;;;;;;;2.85;1.10;;;18.60;81.80;;;;;;5028485;28;20049;-90
2021/09/24 09:41:05;;;;;;;5.53;1.60;;;18.70;81.20;;;;;;5014937;28;20107;-90
2021/09/24 09:43:38;;;;;;;7.32;1.30;;;18.70;81.10;;;;;;5029868;28;20449;-90
2021/09/24 09:46:15;;;;;;;3.45;1.30;;;18.70;81.10;;;;;;5031053;28;20046;-89
2021/09/24 09:48:43;;;;;;;3.90;1.20;;;18.80;80.80;;;;;;5012143;28;20104;-89
2021/09/24 09:51:20;;;;;;;2.63;1.10;;;18.90;80.60;;;;;;5029681;28;20123;-87
2021/09/24 09:53:50;;;;;;;9.07;1.30;;;18.90;80.30;;;;;;5028986;28;20038;-90
2021/09/24 09:56:18;;;;;;;3.03;1.08;;;18.90;79.70;;;;;;5029517;28;20057;-89
2021/09/24 09:58:45;;;;;;;3.05;1.15;;;18.90;79.60;;;;;;5032244;28;20092;-86
2021/09/24 10:01:17;;;;;;;2.60;0.95;;;19.00;79.60;;;;;;5033658;28;20049;-88
2021/09/24 10:03:50;;;;;;;5.55;0.85;;;19.10;79.60;;;;;;5029766;28;20056;-86
2021/09/24 10:06:32;;;;;;;3.92;0.80;;;19.10;79.60;;;;;;5029718;28;20049;-86
2021/09/24 10:09:03;;;;;;;3.50;0.90;;;19.10;78.60;;;;;;5028792;28;20057;-86
2021/09/24 10:11:37;;;;;;;2.42;0.82;;;19.10;78.40;;;;;;5029529;28;20580;-84
2021/09/24 10:14:09;;;;;;;3.30;1.10;;;19.10;78.40;;;;;;5015845;28;20042;-87
2021/09/24 10:16:38;;;;;;;4.47;0.95;;;19.10;78.20;;;;;;5029044;28;20053;-86
2021/09/24 10:19:05;;;;;;;4.13;0.90;;;19.10;78.20;;;;;;5031002;28;20312;-86
2021/09/24 10:21:50;;;;;;;2.03;0.75;;;19.10;78.30;;;;;;5028926;28;20099;-84
2021/09/24 10:24:17;;;;;;;2.42;0.95;;;19.10;78.10;;;;;;5028846;28;20195;-89
2021/09/24 10:26:50;;;;;;;1.58;0.80;;;19.10;78.10;;;;;;5029188;28;20124;-86
2021/09/24 10:29:22;;;;;;;2.42;0.90;;;19.10;78.10;;;;;;5029107;28;20072;-85
2021/09/24 10:31:52;;;;;;;1.97;0.97;;;19.20;78.10;;;;;;5031514;28;20087;-87
2021/09/24 10:34:22;;;;;;;1.08;0.60;;;19.20;78.10;;;;;;5031931;28;20104;-87
2021/09/24 10:36:56;;;;;;;2.38;0.90;;;19.20;77.90;;;;;;5028190;28;20501;-86
2021/09/24 10:39:29;;;;;;;;;;;19.20;77.60;;;;;;5029360;28;20092;-86
2021/09/24 10:42:15;;;;;;;1.10;0.45;;;19.30;77.40;;;;;;5029176;28;19921;-85
2021/09/24 10:45:39;;;;;;;1.38;0.60;;;19.30;77.10;;;;;;5028649;28;20042;-85
2021/09/24 10:48:16;;;;;;;1.10;0.60;;;19.30;76.70;;;;;;4932284;29;20051;-86
2021/09/24 10:50:45;;;;;;;1.33;0.60;;;19.30;76.80;;;;;;4931932;29;20052;-86
2021/09/24 10:53:23;;;;;;;1.02;0.60;;;19.20;76.40;;;;;;4931309;29;20051;-84
2021/09/24 10:55:53;;;;;;;1.67;0.80;;;19.20;76.50;;;;;;4932282;29;20047;-85
2021/09/24 10:58:28;;;;;;;3.75;0.90;;;19.20;76.60;;;;;;4933382;29;20051;-86
2021/09/24 11:00:58;;;;;;;1.83;0.73;;;19.20;76.50;;;;;;4931559;29;20465;-85
2021/09/24 11:03:29;;;;;;;2.67;0.75;;;19.10;76.30;;;;;;4931940;29;20110;-85
2021/09/24 11:05:56;;;;;;;2.30;0.82;;;19.10;76.30;;;;;;4924296;29;20139;-86
2021/09/24 11:08:38;;;;;;;2.30;0.80;;;19.20;76.50;;;;;;4931319;29;20051;-86
2021/09/24 11:11:11;;;;;;;1.70;0.90;;;19.20;76.70;;;;;;4931833;29;20425;-86
2021/09/24 11:13:44;;;;;;;3.40;0.87;;;19.20;76.60;;;;;;4932004;29;20559;-86
2021/09/24 11:16:14;;;;;;;2.63;1.17;;;19.20;76.40;;;;;;4932303;29;20804;-86
2021/09/24 11:18:50;;;;;;;2.05;1.10;;;19.20;76.40;;;;;;4931868;29;20043;-86
2021/09/24 11:21:23;;;;;;;3.05;1.15;;;19.20;76.40;;;;;;4947124;28;20045;-86
2021/09/24 11:23:53;;;;;;;2.35;1.40;;;19.30;76.40;;;;;;5028513;28;20045;-85
2021/09/24 11:26:25;;;;;;;2.45;1.30;;;19.30;76.40;;;;;;5027941;28;20466;-85
2021/09/24 11:29:06;;;;;;;3.63;1.42;;;19.30;76.40;;;;;;5029354;28;20123;-85
2021/09/24 11:32:09;;;;;;;3.97;1.60;;;19.40;76.50;;;;;;5028448;28;20111;-85
2021/09/24 11:34:39;;;;;;;3.60;1.25;;;19.40;76.40;;;;;;4947667;29;20051;-87
2021/09/24 11:37:07;;;;;;;4.15;1.17;;;19.40;76.30;;;;;;4950259;29;20055;-86
2021/09/24 11:39:38;;;;;;;2.03;1.10;;;19.40;75.90;;;;;;4948975;29;20496;-86
2021/09/24 11:42:07;;;;;;;4.03;1.20;;;19.40;75.60;;;;;;4948753;29;20453;-85
2021/09/24 11:44:36;;;;;;;3.03;1.30;;;19.40;75.40;;;;;;4949012;29;20111;-85
2021/09/24 11:47:17;;;;;;;3.00;1.40;;;19.40;75.30;;;;;;4933732;29;20051;-85
2021/09/24 11:50:04;;;;;;;3.83;1.55;;;19.40;75.30;;;;;;4931020;29;20047;-86
2021/09/24 11:52:47;;;;;;;2.42;1.35;;;19.40;75.10;;;;;;4950361;29;20107;-86
2021/09/24 11:55:24;;;;;;;2.78;1.42;;;19.50;75.10;;;;;;4947816;29;20485;-86
2021/09/24 11:57:55;;;;;;;3.65;1.70;;;19.40;75.00;;;;;;4948762;29;20047;-86
2021/09/24 12:00:24;;;;;;;3.22;1.50;;;19.40;74.90;;;;;;4948124;28;20051;-86
2021/09/24 12:03:05;;;;;;;6.68;1.58;;;19.40;74.90;;;;;;4948399;29;20180;-86
2021/09/24 12:05:33;;;;;;;5.43;1.75;;;19.50;75.10;;;;;;4948414;29;20047;-86
2021/09/24 12:08:00;;;;;;;4.38;1.95;;;19.50;75.20;;;;;;4948867;29;20051;-85
2021/09/24 12:10:29;;;;;;;5.05;1.95;;;19.50;75.20;;;;;;4998254;28;20080;-85
2021/09/24 12:13:13;;;;;;;4.38;2.40;;;19.50;75.30;;;;;;5027720;28;20049;-86
2021/09/24 12:15:58;;;;;;;4.47;2.13;;;19.60;75.40;;;;;;5026118;28;20064;-85
2021/09/24 12:18:55;;;;;;;3.33;1.90;;;19.60;75.30;;;;;;5025789;28;20049;-85
2021/09/24 12:21:49;;;;;;;4.45;2.20;;;19.70;75.20;;;;;;5026133;28;20103;-84
2021/09/24 12:24:33;;;;;;;3.28;2.03;;;19.70;75.10;;;;;;5026107;28;20060;-86
2021/09/24 12:27:06;;;;;;;3.53;2.03;;;19.80;75.10;;;;;;5025919;28;20049;-86
2021/09/24 12:29:34;;;;;;;3.20;1.70;;;19.80;75.00;;;;;;5026226;28;20075;-84
2021/09/24 12:32:07;;;;;;;3.75;1.98;;;19.80;74.80;;;;;;5026727;28;20057;-85
2021/09/24 12:34:59;;;;;;;5.25;2.03;;;19.90;74.40;;;;;;5026356;28;20045;-85
2021/09/24 12:37:45;;;;;;;4.18;2.22;;;19.90;74.10;;;;;;5029596;28;20140;-85
2021/09/24 12:40:17;;;;;;;4.55;2.42;;;19.90;73.90;;;;;;5027618;28;20045;-85
2021/09/24 12:42:53;;;;;;;3.97;2.17;;;19.90;73.80;;;;;;5026277;28;20053;-86
2021/09/24 12:45:35;;;;;;;5.72;2.17;;;19.90;73.80;;;;;;5025877;28;20056;-86
2021/09/24 12:48:13;;;;;;;4.82;2.08;;;19.90;73.90;;;;;;5025493;28;20536;-85
2021/09/24 12:50:42;;;;;;;3.85;2.22;;;19.90;74.00;;;;;;5027571;28;20064;-85
2021/09/24 12:53:09;;;;;;;3.63;1.90;;;19.90;74.10;;;;;;5025979;28;20046;-85